Weather

Webcam

Metar / TAF

Zurich

  • LSZH 260520Z VRB01KT 0450 R14/0900N R16/0700N R28/0900N R34/0700N FZFG VV002 M02/M02 Q1020 BECMG 0300 VV001

  • TAF LSZH 260525Z 2606/2712 VRB03KT 0550 FZFG VV002 TX02/2614Z TNM02/2606Z TNM00/2705Z BECMG 2610/2613 1500 BCFG BKN003 BECMG 2613/2616 4000 BR FEW007 PROB40 2614/2620 5000 NSW PROB30 TEMPO 2619/2703 RA BKN030

Dübendorf

  • LSMD 260550Z AUTO 00000KT 0700NDV R11/0900N R29/1300VP2000U FG VV001 M01/M02 Q1020 RMK

  • TAF LSMD 251625Z 2517/2623 VRB03KT 0300 FZFG VV001 BECMG 2608/2611 1500 BCFG BKN004 BECMG 2611/2614 6000 SCT007 BECMG 2618/2621 4000 BR

St. Gallen

  • LSZR 260550Z AUTO 09004KT 0150 R10/0150N FG VV001 01/01 Q1020

  • TAF AMD LSZR 222054Z 2220/2224 CNL

Bern

  • LSZB 260550Z 00000KT 0150 R14/0150N FZFG VV002 M04/M04 Q1020 NOSIG

  • TAF AMD TAF AMD LSZB 222054Z 2220/2224 CNL

Locarno

  • LSZL 260550Z AUTO VRB02KT 9999NDV OVC100 00/00 Q1022 RMK

  • TAF AMD TAF AMD LSZL 150713Z 1509/1521 VRB03KT 9999 SCT050

Samedan

  • LSZS 260550Z AUTO VRB01KT 9999 OVC050 M09/M09 Q1018

  • TAF AMD LSZS 222054Z 2220/2224 CNL

Geneve

  • LSGG 260550Z VRB01KT 0400 R04/1100D R22/0800U FG VV002 01/01 Q1020 TEMPO 0800

  • TAF TAF LSGG 260525Z 2606/2712 VRB03KT 0600 FG VV002 TX06/2615Z TN01/2606Z TN01/2706Z PROB30 TEMPO 2606/2607 0300 FG VV001 BECMG 2607/2609 1400 BR OVC002 BECMG 2609/2612 3000 SHRA BKN030 BECMG 2612/2614 6000 PROB30 TEMPO 2700/2706 0800 FG VV003

Weather-Charts



Wind at FL50: 06:00z, 09:00z, 12:00z, 15:00z and 18:00z